sensor_id;sensor_type;location;lat;lon;timestamp;pressure;altitude;pressure_sealevel;temperature;humidity
39891;BME280;25564;53.312;9.790;2023-02-02T00:02:22;100495.53;;;4.35;100.00
39891;BME280;25564;53.312;9.790;2023-02-02T00:04:53;100466.59;;;4.23;100.00
39891;BME280;25564;53.312;9.790;2023-02-02T00:07:24;100489.34;;;4.22;100.00
39891;BME280;25564;53.312;9.790;2023-02-02T00:09:55;100501.59;;;4.19;100.00
39891;BME280;25564;53.312;9.790;2023-02-02T00:12:27;100501.59;;;4.20;100.00
39891;BME280;25564;53.312;9.790;2023-02-02T00:14:58;100491.97;;;4.21;100.00
39891;BME280;25564;53.312;9.790;2023-02-02T00:17:29;100499.84;;;4.21;100.00
39891;BME280;25564;53.312;9.790;2023-02-02T00:20:01;100496.34;;;4.19;100.00
39891;BME280;25564;53.312;9.790;2023-02-02T00:22:32;100512.16;;;4.30;100.00
39891;BME280;25564;53.312;9.790;2023-02-02T00:25:04;100505.16;;;4.32;100.00
39891;BME280;25564;53.312;9.790;2023-02-02T00:27:35;100517.41;;;4.33;100.00
39891;BME280;25564;53.312;9.790;2023-02-02T00:30:08;100516.56;;;4.38;100.00
39891;BME280;25564;53.312;9.790;2023-02-02T00:32:39;100537.59;;;4.38;100.00
39891;BME280;25564;53.312;9.790;2023-02-02T00:35:10;100542.84;;;4.38;100.00
39891;BME280;25564;53.312;9.790;2023-02-02T00:37:42;100541.06;;;4.37;100.00
39891;BME280;25564;53.312;9.790;2023-02-02T00:40:13;100536.69;;;4.35;100.00
39891;BME280;25564;53.312;9.790;2023-02-02T00:42:44;100520.03;;;4.33;100.00
39891;BME280;25564;53.312;9.790;2023-02-02T00:45:20;100520.03;;;4.34;100.00
39891;BME280;25564;53.312;9.790;2023-02-02T00:47:52;100526.19;;;4.35;100.00
39891;BME280;25564;53.312;9.790;2023-02-02T00:50:23;100535.81;;;4.37;100.00
39891;BME280;25564;53.312;9.790;2023-02-02T00:52:55;100533.22;;;4.42;100.00
39891;BME280;25564;53.312;9.790;2023-02-02T00:55:28;100537.59;;;4.43;100.00
39891;BME280;25564;53.312;9.790;2023-02-02T00:57:59;100539.38;;;4.48;100.00
39891;BME280;25564;53.312;9.790;2023-02-02T01:00:30;100535.00;;;4.49;100.00
39891;BME280;25564;53.312;9.790;2023-02-02T01:03:02;100543.78;;;4.51;100.00
39891;BME280;25564;53.312;9.790;2023-02-02T01:05:35;100560.44;;;4.54;100.00
39891;BME280;25564;53.312;9.790;2023-02-02T01:08:06;100560.44;;;4.57;100.00
39891;BME280;25564;53.312;9.790;2023-02-02T01:10:37;100563.94;;;4.53;100.00
39891;BME280;25564;53.312;9.790;2023-02-02T01:13:09;100544.66;;;4.51;100.00
39891;BME280;25564;53.312;9.790;2023-02-02T01:15:40;100559.56;;;4.57;100.00
39891;BME280;25564;53.312;9.790;2023-02-02T01:18:11;100569.19;;;4.56;100.00
39891;BME280;25564;53.312;9.790;2023-02-02T01:20:43;100573.56;;;4.56;100.00
39891;BME280;25564;53.312;9.790;2023-02-02T01:23:14;100560.41;;;4.48;100.00
39891;BME280;25564;53.312;9.790;2023-02-02T01:25:45;100578.84;;;4.57;100.00
39891;BME280;25564;53.312;9.790;2023-02-02T01:28:23;100563.03;;;4.48;100.00
39891;BME280;25564;53.312;9.790;2023-02-02T01:30:55;100582.34;;;4.61;100.00
39891;BME280;25564;53.312;9.790;2023-02-02T01:33:27;100568.28;;;4.48;100.00
39891;BME280;25564;53.312;9.790;2023-02-02T01:36:04;100579.69;;;4.55;100.00
39891;BME280;25564;53.312;9.790;2023-02-02T01:38:36;100568.28;;;4.47;100.00
39891;BME280;25564;53.312;9.790;2023-02-02T01:41:11;100575.22;;;4.39;100.00
39891;BME280;25564;53.312;9.790;2023-02-02T01:46:16;100597.19;;;4.51;100.00
39891;BME280;25564;53.312;9.790;2023-02-02T01:48:52;100597.22;;;4.54;100.00
39891;BME280;25564;53.312;9.790;2023-02-02T01:51:33;100588.41;;;4.43;100.00
39891;BME280;25564;53.312;9.790;2023-02-02T01:54:08;100559.44;;;4.31;100.00
39891;BME280;25564;53.312;9.790;2023-02-02T01:56:44;100600.72;;;4.53;100.00
39891;BME280;25564;53.312;9.790;2023-02-02T01:59:16;100620.00;;;4.58;100.00
39891;BME280;25564;53.312;9.790;2023-02-02T02:01:49;100618.25;;;4.57;100.00
39891;BME280;25564;53.312;9.790;2023-02-02T02:04:23;100627.03;;;4.64;100.00
39891;BME280;25564;53.312;9.790;2023-02-02T02:06:56;100591.03;;;4.48;100.00
39891;BME280;25564;53.312;9.790;2023-02-02T02:09:29;100623.50;;;4.54;100.00
39891;BME280;25564;53.312;9.790;2023-02-02T02:12:00;100626.09;;;4.53;100.00
39891;BME280;25564;53.312;9.790;2023-02-02T02:14:31;100632.25;;;4.53;100.00
39891;BME280;25564;53.312;9.790;2023-02-02T02:20:37;100643.66;;;4.55;100.00
39891;BME280;25564;53.312;9.790;2023-02-02T02:27:33;100649.81;;;4.62;100.00
39891;BME280;25564;53.312;9.790;2023-02-02T02:33:14;100653.34;;;4.66;100.00
39891;BME280;25564;53.312;9.790;2023-02-02T02:36:00;100665.63;;;4.70;100.00
39891;BME280;25564;53.312;9.790;2023-02-02T02:41:22;100674.41;;;4.72;100.00
39891;BME280;25564;53.312;9.790;2023-02-02T02:44:07;100680.50;;;4.69;100.00
39891;BME280;25564;53.312;9.790;2023-02-02T02:46:40;100679.63;;;4.66;100.00
39891;BME280;25564;53.312;9.790;2023-02-02T02:49:13;100670.88;;;4.67;100.00
39891;BME280;25564;53.312;9.790;2023-02-02T02:51:47;100669.13;;;4.67;100.00
39891;BME280;25564;53.312;9.790;2023-02-02T02:54:41;100661.16;;;4.56;100.00
39891;BME280;25564;53.312;9.790;2023-02-02T02:57:40;100674.31;;;4.56;100.00
39891;BME280;25564;53.312;9.790;2023-02-02T03:05:53;100668.06;;;4.39;100.00
39891;BME280;25564;53.312;9.790;2023-02-02T03:08:38;100684.81;;;4.56;100.00
39891;BME280;25564;53.312;9.790;2023-02-02T03:11:12;100695.38;;;4.66;100.00
39891;BME280;25564;53.312;9.790;2023-02-02T03:13:45;100694.53;;;4.70;100.00
39891;BME280;25564;53.312;9.790;2023-02-02T03:16:17;100691.91;;;4.70;100.00
39891;BME280;25564;53.312;9.790;2023-02-02T03:18:49;100705.09;;;4.76;100.00
39891;BME280;25564;53.312;9.790;2023-02-02T03:21:21;100677.91;;;4.71;100.00
39891;BME280;25564;53.312;9.790;2023-02-02T03:23:52;100692.81;;;4.73;100.00
39891;BME280;25564;53.312;9.790;2023-02-02T03:26:24;100694.56;;;4.76;100.00
39891;BME280;25564;53.312;9.790;2023-02-02T03:28:56;100693.69;;;4.74;100.00
39891;BME280;25564;53.312;9.790;2023-02-02T03:31:28;100709.50;;;4.83;100.00
39891;BME280;25564;53.312;9.790;2023-02-02T03:33:59;100700.69;;;4.72;100.00
39891;BME280;25564;53.312;9.790;2023-02-02T03:36:31;100710.34;;;4.77;100.00
39891;BME280;25564;53.312;9.790;2023-02-02T03:39:02;100720.91;;;4.86;100.00
39891;BME280;25564;53.312;9.790;2023-02-02T03:41:33;100717.41;;;4.83;100.00
39891;BME280;25564;53.312;9.790;2023-02-02T03:44:05;100712.16;;;4.86;100.00
39891;BME280;25564;53.312;9.790;2023-02-02T03:46:36;100719.16;;;4.82;100.00
39891;BME280;25564;53.312;9.790;2023-02-02T03:49:07;100718.22;;;4.76;100.00
39891;BME280;25564;53.312;9.790;2023-02-02T03:51:39;100740.16;;;4.81;100.00
39891;BME280;25564;53.312;9.790;2023-02-02T03:54:10;100743.69;;;4.81;100.00
39891;BME280;25564;53.312;9.790;2023-02-02T03:56:41;100757.72;;;4.83;100.00
39891;BME280;25564;53.312;9.790;2023-02-02T03:59:13;100755.06;;;4.82;100.00
39891;BME280;25564;53.312;9.790;2023-02-02T04:01:44;100750.72;;;4.87;100.00
39891;BME280;25564;53.312;9.790;2023-02-02T04:04:15;100743.72;;;4.87;100.00
39891;BME280;25564;53.312;9.790;2023-02-02T04:06:47;100734.06;;;4.88;100.00
39891;BME280;25564;53.312;9.790;2023-02-02T04:09:18;100747.25;;;4.91;100.00
39891;BME280;25564;53.312;9.790;2023-02-02T04:11:50;100743.72;;;4.90;100.00
39891;BME280;25564;53.312;9.790;2023-02-02T04:14:21;100744.63;;;4.91;100.00
39891;BME280;25564;53.312;9.790;2023-02-02T04:16:52;100739.34;;;4.88;100.00
39891;BME280;25564;53.312;9.790;2023-02-02T04:19:24;100758.63;;;4.87;100.00
39891;BME280;25564;53.312;9.790;2023-02-02T04:21:55;100784.06;;;4.92;100.00
39891;BME280;25564;53.312;9.790;2023-02-02T04:24:26;100764.75;;;4.86;100.00
39891;BME280;25564;53.312;9.790;2023-02-02T04:26:58;100795.47;;;4.96;100.00
39891;BME280;25564;53.312;9.790;2023-02-02T04:29:29;100794.63;;;4.99;100.00
39891;BME280;25564;53.312;9.790;2023-02-02T04:32:00;100798.13;;;4.99;100.00
39891;BME280;25564;53.312;9.790;2023-02-02T04:34:31;100790.22;;;4.93;100.00
39891;BME280;25564;53.312;9.790;2023-02-02T04:37:03;100770.84;;;4.80;100.00
39891;BME280;25564;53.312;9.790;2023-02-02T04:39:34;100791.06;;;4.92;100.00
39891;BME280;25564;53.312;9.790;2023-02-02T04:42:05;100773.53;;;4.88;100.00
39891;BME280;25564;53.312;9.790;2023-02-02T04:44:37;100791.97;;;4.96;100.00
39891;BME280;25564;53.312;9.790;2023-02-02T04:47:08;100799.88;;;4.96;100.00
39891;BME280;25564;53.312;9.790;2023-02-02T04:49:39;100789.28;;;4.86;100.00
39891;BME280;25564;53.312;9.790;2023-02-02T04:52:11;100798.97;;;4.92;100.00
39891;BME280;25564;53.312;9.790;2023-02-02T04:54:42;100827.88;;;4.92;100.00
39891;BME280;25564;53.312;9.790;2023-02-02T04:57:13;100815.63;;;4.92;100.00
39891;BME280;25564;53.312;9.790;2023-02-02T04:59:45;100790.16;;;4.84;100.00
39891;BME280;25564;53.312;9.790;2023-02-02T05:02:16;100799.88;;;4.99;100.00
39891;BME280;25564;53.312;9.790;2023-02-02T05:04:48;100810.41;;;5.00;100.00
39891;BME280;25564;53.312;9.790;2023-02-02T05:07:19;100804.25;;;4.98;100.00
39891;BME280;25564;53.312;9.790;2023-02-02T05:09:50;100814.75;;;4.92;100.00
39891;BME280;25564;53.312;9.790;2023-02-02T05:12:22;100796.25;;;4.78;100.00
39891;BME280;25564;53.312;9.790;2023-02-02T05:14:53;100783.88;;;4.67;100.00
39891;BME280;25564;53.312;9.790;2023-02-02T05:17:24;100813.78;;;4.82;100.00
39891;BME280;25564;53.312;9.790;2023-02-02T05:19:56;100811.16;;;4.82;100.00
39891;BME280;25564;53.312;9.790;2023-02-02T05:22:27;100811.13;;;4.78;100.00
39891;BME280;25564;53.312;9.790;2023-02-02T05:24:58;100815.56;;;4.83;100.00
39891;BME280;25564;53.312;9.790;2023-02-02T05:27:30;100817.31;;;4.84;100.00
39891;BME280;25564;53.312;9.790;2023-02-02T05:30:01;100817.31;;;4.83;100.00
39891;BME280;25564;53.312;9.790;2023-02-02T05:32:32;100821.72;;;4.88;100.00
39891;BME280;25564;53.312;9.790;2023-02-02T05:35:04;100815.59;;;4.91;100.00
39891;BME280;25564;53.312;9.790;2023-02-02T05:37:36;100821.72;;;4.88;100.00
39891;BME280;25564;53.312;9.790;2023-02-02T05:40:08;100814.72;;;4.89;100.00
39891;BME280;25564;53.312;9.790;2023-02-02T05:42:39;100829.63;;;4.90;100.00
39891;BME280;25564;53.312;9.790;2023-02-02T05:45:10;100823.41;;;4.80;100.00
39891;BME280;25564;53.312;9.790;2023-02-02T05:47:42;100835.75;;;4.89;100.00
39891;BME280;25564;53.312;9.790;2023-02-02T05:50:14;100848.03;;;4.90;100.00
39891;BME280;25564;53.312;9.790;2023-02-02T05:52:45;100848.00;;;4.87;100.00
39891;BME280;25564;53.312;9.790;2023-02-02T05:55:18;100841.84;;;4.85;100.00
39891;BME280;25564;53.312;9.790;2023-02-02T05:57:50;100859.47;;;4.95;100.00
39891;BME280;25564;53.312;9.790;2023-02-02T06:00:21;100854.22;;;4.95;100.00
39891;BME280;25564;53.312;9.790;2023-02-02T06:02:53;100865.63;;;4.97;100.00
39891;BME280;25564;53.312;9.790;2023-02-02T06:05:24;100849.78;;;4.88;100.00
39891;BME280;25564;53.312;9.790;2023-02-02T06:07:56;100870.88;;;4.97;100.00
39891;BME280;25564;53.312;9.790;2023-02-02T06:10:27;100875.25;;;4.97;100.00
39891;BME280;25564;53.312;9.790;2023-02-02T06:12:58;100848.88;;;4.84;100.00
39891;BME280;25564;53.312;9.790;2023-02-02T06:15:30;100864.69;;;4.92;100.00
39891;BME280;25564;53.312;9.790;2023-02-02T06:18:03;100877.00;;;4.96;100.00
39891;BME280;25564;53.312;9.790;2023-02-02T06:20:37;100857.66;;;4.86;100.00
39891;BME280;25564;53.312;9.790;2023-02-02T06:23:08;100877.91;;;4.98;100.00
39891;BME280;25564;53.312;9.790;2023-02-02T06:25:39;100878.75;;;4.97;100.00
39891;BME280;25564;53.312;9.790;2023-02-02T06:28:11;100880.50;;;4.97;100.00
39891;BME280;25564;53.312;9.790;2023-02-02T06:30:42;100893.66;;;4.97;100.00
39891;BME280;25564;53.312;9.790;2023-02-02T06:33:14;100890.16;;;4.96;100.00
39891;BME280;25564;53.312;9.790;2023-02-02T06:35:45;100873.34;;;4.79;100.00
39891;BME280;25564;53.312;9.790;2023-02-02T06:38:17;100909.38;;;4.87;100.00
39891;BME280;25564;53.312;9.790;2023-02-02T06:40:49;100908.47;;;4.87;100.00
39891;BME280;25564;53.312;9.790;2023-02-02T06:43:20;100911.94;;;4.83;100.00
39891;BME280;25564;53.312;9.790;2023-02-02T06:45:51;100902.22;;;4.74;100.00
39891;BME280;25564;53.312;9.790;2023-02-02T06:48:23;100918.03;;;4.77;100.00
39891;BME280;25564;53.312;9.790;2023-02-02T06:50:58;100910.16;;;4.77;100.00
39891;BME280;25564;53.312;9.790;2023-02-02T06:53:30;100918.06;;;4.80;100.00
39891;BME280;25564;53.312;9.790;2023-02-02T06:56:04;100932.09;;;4.81;100.00
39891;BME280;25564;53.312;9.790;2023-02-02T06:58:36;100920.66;;;4.76;100.00
39891;BME280;25564;53.312;9.790;2023-02-02T07:01:09;100928.63;;;4.85;100.00
39891;BME280;25564;53.312;9.790;2023-02-02T07:03:41;100942.69;;;4.90;100.00
39891;BME280;25564;53.312;9.790;2023-02-02T07:06:17;100935.69;;;4.92;100.00
39891;BME280;25564;53.312;9.790;2023-02-02T07:08:50;100940.13;;;4.96;100.00
39891;BME280;25564;53.312;9.790;2023-02-02T07:11:33;100948.00;;;4.96;100.00
39891;BME280;25564;53.312;9.790;2023-02-02T07:14:10;100955.03;;;4.97;100.00
39891;BME280;25564;53.312;9.790;2023-02-02T07:16:41;100955.91;;;4.96;100.00
39891;BME280;25564;53.312;9.790;2023-02-02T07:19:12;100959.41;;;4.98;100.00
39891;BME280;25564;53.312;9.790;2023-02-02T07:21:44;100968.22;;;5.00;100.00
39891;BME280;25564;53.312;9.790;2023-02-02T07:24:15;100961.13;;;4.91;100.00
39891;BME280;25564;53.312;9.790;2023-02-02T07:26:46;100976.06;;;4.97;100.00
39891;BME280;25564;53.312;9.790;2023-02-02T07:29:18;100976.09;;;5.00;100.00
39891;BME280;25564;53.312;9.790;2023-02-02T07:31:49;100982.19;;;4.96;100.00
39891;BME280;25564;53.312;9.790;2023-02-02T07:34:21;100973.41;;;4.92;100.00
39891;BME280;25564;53.312;9.790;2023-02-02T07:36:52;100995.41;;;5.02;100.00
39891;BME280;25564;53.312;9.790;2023-02-02T07:39:23;100992.78;;;5.04;100.00
39891;BME280;25564;53.312;9.790;2023-02-02T07:41:55;101005.94;;;5.05;100.00
39891;BME280;25564;53.312;9.790;2023-02-02T07:44:26;101007.72;;;5.08;100.00
39891;BME280;25564;53.312;9.790;2023-02-02T07:46:57;101005.09;;;5.06;100.00
39891;BME280;25564;53.312;9.790;2023-02-02T07:49:29;101003.34;;;5.07;100.00
39891;BME280;25564;53.312;9.790;2023-02-02T07:52:00;101017.34;;;5.04;100.00
39891;BME280;25564;53.312;9.790;2023-02-02T07:54:31;101022.66;;;5.10;100.00
39891;BME280;25564;53.312;9.790;2023-02-02T07:57:03;101019.19;;;5.14;100.00
39891;BME280;25564;53.312;9.790;2023-02-02T07:59:34;101023.59;;;5.21;100.00
39891;BME280;25564;53.312;9.790;2023-02-02T08:02:08;101004.31;;;5.16;100.00
39891;BME280;25564;53.312;9.790;2023-02-02T08:04:39;101037.78;;;5.36;100.00
39891;BME280;25564;53.312;9.790;2023-02-02T08:07:11;101039.56;;;5.40;100.00
39891;BME280;25564;53.312;9.790;2023-02-02T08:09:45;101032.50;;;5.36;100.00
39891;BME280;25564;53.312;9.790;2023-02-02T08:12:18;101038.69;;;5.39;100.00
39891;BME280;25564;53.312;9.790;2023-02-02T08:14:51;101041.22;;;5.29;100.00
39891;BME280;25564;53.312;9.790;2023-02-02T08:17:22;101055.19;;;5.21;100.00
39891;BME280;25564;53.312;9.790;2023-02-02T08:19:54;101036.69;;;5.11;100.00
39891;BME280;25564;53.312;9.790;2023-02-02T08:22:25;101054.34;;;5.27;100.00
39891;BME280;25564;53.312;9.790;2023-02-02T08:24:56;101061.41;;;5.31;100.00
39891;BME280;25564;53.312;9.790;2023-02-02T08:27:27;101065.78;;;5.31;100.00
39891;BME280;25564;53.312;9.790;2023-02-02T08:29:59;101066.63;;;5.25;100.00
39891;BME280;25564;53.312;9.790;2023-02-02T08:32:30;101078.81;;;5.14;100.00
39891;BME280;25564;53.312;9.790;2023-02-02T08:35:01;101073.47;;;5.06;100.00
39891;BME280;25564;53.312;9.790;2023-02-02T08:37:33;101085.72;;;5.04;100.00
39891;BME280;25564;53.312;9.790;2023-02-02T08:40:04;101079.59;;;5.05;100.00
39891;BME280;25564;53.312;9.790;2023-02-02T08:42:36;101070.78;;;5.00;100.00
39891;BME280;25564;53.312;9.790;2023-02-02T08:45:07;101088.47;;;5.16;100.00
39891;BME280;25564;53.312;9.790;2023-02-02T08:47:59;101083.28;;;5.25;100.00
39891;BME280;25564;53.312;9.790;2023-02-02T08:50:42;101085.19;;;5.40;100.00
39891;BME280;25564;53.312;9.790;2023-02-02T08:53:13;101093.28;;;5.63;100.00
39891;BME280;25564;53.312;9.790;2023-02-02T08:55:44;101096.09;;;5.84;100.00
39891;BME280;25564;53.312;9.790;2023-02-02T08:58:16;101082.06;;;5.85;100.00
39891;BME280;25564;53.312;9.790;2023-02-02T09:00:47;101102.41;;;6.02;100.00
39891;BME280;25564;53.312;9.790;2023-02-02T09:03:18;101102.47;;;6.09;100.00
39891;BME280;25564;53.312;9.790;2023-02-02T09:05:50;101094.47;;;5.96;100.00
39891;BME280;25564;53.312;9.790;2023-02-02T09:08:21;101111.16;;;5.98;100.00
39891;BME280;25564;53.312;9.790;2023-02-02T09:10:52;101115.53;;;5.97;100.00
39891;BME280;25564;53.312;9.790;2023-02-02T09:13:24;101122.63;;;6.06;100.00
39891;BME280;25564;53.312;9.790;2023-02-02T09:15:58;101120.88;;;6.08;100.00
39891;BME280;25564;53.312;9.790;2023-02-02T09:18:31;101121.75;;;6.05;100.00
39891;BME280;25564;53.312;9.790;2023-02-02T09:21:04;101120.94;;;6.12;100.00
39891;BME280;25564;53.312;9.790;2023-02-02T09:23:38;101126.25;;;6.24;100.00
39891;BME280;25564;53.312;9.790;2023-02-02T09:26:15;101134.16;;;6.21;100.00
39891;BME280;25564;53.312;9.790;2023-02-02T09:28:48;101137.66;;;6.20;100.00
39891;BME280;25564;53.312;9.790;2023-02-02T09:31:21;101140.31;;;6.28;100.00
39891;BME280;25564;53.312;9.790;2023-02-02T09:33:53;101125.31;;;6.10;100.00
39891;BME280;25564;53.312;9.790;2023-02-02T09:36:24;101136.63;;;6.00;100.00
39891;BME280;25564;53.312;9.790;2023-02-02T09:38:57;101157.81;;;6.11;100.00
39891;BME280;25564;53.312;9.790;2023-02-02T09:47:16;101165.78;;;6.23;100.00
39891;BME280;25564;53.312;9.790;2023-02-02T09:50:13;101167.56;;;6.27;100.00
39891;BME280;25564;53.312;9.790;2023-02-02T09:52:56;101172.03;;;6.37;100.00
39891;BME280;25564;53.312;9.790;2023-02-02T09:55:43;101172.97;;;6.47;100.00
39891;BME280;25564;53.312;9.790;2023-02-02T09:58:19;101175.63;;;6.53;100.00
39891;BME280;25564;53.312;9.790;2023-02-02T10:00:58;101172.19;;;6.65;100.00
39891;BME280;25564;53.312;9.790;2023-02-02T10:03:39;101177.56;;;6.83;100.00
39891;BME280;25564;53.312;9.790;2023-02-02T10:06:40;101181.13;;;6.91;100.00
39891;BME280;25564;53.312;9.790;2023-02-02T10:12:17;101184.75;;;7.14;100.00
39891;BME280;25564;53.312;9.790;2023-02-02T10:14:55;101200.59;;;7.28;100.00
39891;BME280;25564;53.312;9.790;2023-02-02T10:17:38;101184.81;;;7.40;100.00
39891;BME280;25564;53.312;9.790;2023-02-02T10:20:27;101198.94;;;7.51;100.00
39891;BME280;25564;53.312;9.790;2023-02-02T10:23:20;101205.09;;;7.53;100.00
39891;BME280;25564;53.312;9.790;2023-02-02T10:26:07;101210.44;;;7.81;100.00
39891;BME280;25564;53.312;9.790;2023-02-02T10:29:04;101215.75;;;7.95;100.00
39891;BME280;25564;53.312;9.790;2023-02-02T10:32:00;101221.91;;;7.97;100.00
39891;BME280;25564;53.312;9.790;2023-02-02T10:34:39;101220.16;;;7.99;100.00
39891;BME280;25564;53.312;9.790;2023-02-02T10:40:14;101238.66;;;7.96;100.00
39891;BME280;25564;53.312;9.790;2023-02-02T10:46:04;101240.31;;;7.57;100.00
39891;BME280;25564;53.312;9.790;2023-02-02T10:48:45;101235.00;;;7.51;100.00
39891;BME280;25564;53.312;9.790;2023-02-02T10:51:23;101254.38;;;7.47;100.00
39891;BME280;25564;53.312;9.790;2023-02-02T10:53:56;101258.72;;;7.36;100.00
39891;BME280;25564;53.312;9.790;2023-02-02T10:56:50;101255.19;;;7.34;100.00
39891;BME280;25564;53.312;9.790;2023-02-02T10:59:31;101253.47;;;7.45;100.00
39891;BME280;25564;53.312;9.790;2023-02-02T11:02:14;101235.84;;;7.41;100.00
39891;BME280;25564;53.312;9.790;2023-02-02T11:04:51;101264.09;;;7.59;100.00
39891;BME280;25564;53.312;9.790;2023-02-02T11:07:41;101267.63;;;7.62;100.00
39891;BME280;25564;53.312;9.790;2023-02-02T11:10:12;101267.63;;;7.65;100.00
39891;BME280;25564;53.312;9.790;2023-02-02T11:12:46;101275.53;;;7.61;100.00
39891;BME280;25564;53.312;9.790;2023-02-02T11:15:26;101275.50;;;7.51;100.00
39891;BME280;25564;53.312;9.790;2023-02-02T11:18:26;101271.13;;;7.55;100.00
39891;BME280;25564;53.312;9.790;2023-02-02T11:20:58;101279.94;;;7.60;100.00
39891;BME280;25564;53.312;9.790;2023-02-02T11:23:29;101275.56;;;7.68;100.00
39891;BME280;25564;53.312;9.790;2023-02-02T11:26:02;101267.69;;;7.80;100.00
39891;BME280;25564;53.312;9.790;2023-02-02T11:28:36;101267.72;;;7.96;100.00
39891;BME280;25564;53.312;9.790;2023-02-02T11:31:08;101261.56;;;8.03;100.00
39891;BME280;25564;53.312;9.790;2023-02-02T11:33:39;101262.44;;;8.08;100.00
39891;BME280;25564;53.312;9.790;2023-02-02T11:36:19;101279.19;;;8.11;100.00
39891;BME280;25564;53.312;9.790;2023-02-02T11:39:14;101280.03;;;7.94;100.00
39891;BME280;25564;53.312;9.790;2023-02-02T11:41:45;101282.66;;;7.80;100.00
39891;BME280;25564;53.312;9.790;2023-02-02T11:44:26;101281.72;;;7.67;100.00
39891;BME280;25564;53.312;9.790;2023-02-02T11:46:59;101269.34;;;7.54;100.00
39891;BME280;25564;53.312;9.790;2023-02-02T11:49:41;101275.56;;;7.67;100.00
39891;BME280;25564;53.312;9.790;2023-02-02T11:52:21;101291.47;;;7.85;100.00
39891;BME280;25564;53.312;9.790;2023-02-02T11:54:59;101283.59;;;8.00;100.00
39891;BME280;25564;53.312;9.790;2023-02-02T11:57:32;101268.59;;;7.99;100.00
39891;BME280;25564;53.312;9.790;2023-02-02T12:02:47;101295.97;;;8.48;100.00
39891;BME280;25564;53.312;9.790;2023-02-02T12:07:50;101293.31;;;8.82;100.00
39891;BME280;25564;53.312;9.790;2023-02-02T12:10:35;101269.53;;;8.70;100.00
39891;BME280;25564;53.312;9.790;2023-02-02T12:16:30;101294.22;;;8.57;100.00
39891;BME280;25564;53.312;9.790;2023-02-02T12:19:16;101288.03;;;8.32;100.00
39891;BME280;25564;53.312;9.790;2023-02-02T12:22:18;101294.16;;;8.05;100.00
39891;BME280;25564;53.312;9.790;2023-02-02T12:27:37;101292.31;;;7.72;100.00
39891;BME280;25564;53.312;9.790;2023-02-02T12:35:31;101309.84;;;7.53;100.00
39891;BME280;25564;53.312;9.790;2023-02-02T12:38:26;101309.84;;;7.50;100.00
39891;BME280;25564;53.312;9.790;2023-02-02T12:41:14;101302.78;;;7.52;100.00
39891;BME280;25564;53.312;9.790;2023-02-02T12:44:11;101296.72;;;7.73;100.00
39891;BME280;25564;53.312;9.790;2023-02-02T12:50:30;101306.53;;;8.23;100.00
39891;BME280;25564;53.312;9.790;2023-02-02T12:56:17;101297.72;;;8.22;100.00
39891;BME280;25564;53.312;9.790;2023-02-02T13:00:05;101296.81;;;8.09;100.00
39891;BME280;25564;53.312;9.790;2023-02-02T13:05:10;101307.41;;;8.12;100.00
39891;BME280;25564;53.312;9.790;2023-02-02T13:07:54;101304.78;;;8.20;100.00
39891;BME280;25564;53.312;9.790;2023-02-02T13:10:34;101299.47;;;8.23;100.00
39891;BME280;25564;53.312;9.790;2023-02-02T13:13:11;101306.53;;;8.30;100.00
39891;BME280;25564;53.312;9.790;2023-02-02T13:15:48;101307.44;;;8.35;100.00
39891;BME280;25564;53.312;9.790;2023-02-02T13:18:26;101316.25;;;8.46;100.00
39891;BME280;25564;53.312;9.790;2023-02-02T13:21:02;101318.91;;;8.42;100.00
39891;BME280;25564;53.312;9.790;2023-02-02T13:23:36;101329.44;;;8.25;100.00
39891;BME280;25564;53.312;9.790;2023-02-02T13:26:26;101306.47;;;7.98;100.00
39891;BME280;25564;53.312;9.790;2023-02-02T13:29:00;101327.59;;;7.91;100.00
39891;BME280;25564;53.312;9.790;2023-02-02T13:31:40;101321.41;;;7.78;100.00
39891;BME280;25564;53.312;9.790;2023-02-02T13:34:23;101317.84;;;7.73;100.00
39891;BME280;25564;53.312;9.790;2023-02-02T13:37:01;101322.22;;;7.66;100.00
39891;BME280;25564;53.312;9.790;2023-02-02T13:39:37;101324.88;;;7.69;100.00
39891;BME280;25564;53.312;9.790;2023-02-02T13:42:29;101320.50;;;7.71;100.00
39891;BME280;25564;53.312;9.790;2023-02-02T13:48:11;101334.53;;;7.63;100.00
39891;BME280;25564;53.312;9.790;2023-02-02T13:51:00;101326.63;;;7.64;100.00
39891;BME280;25564;53.312;9.790;2023-02-02T13:56:45;101302.94;;;7.88;100.00
39891;BME280;25564;53.312;9.790;2023-02-02T13:59:48;101331.16;;;8.05;100.00
39891;BME280;25564;53.312;9.790;2023-02-02T14:02:33;101325.84;;;7.88;100.00
39891;BME280;25564;53.312;9.790;2023-02-02T14:05:06;101343.47;;;7.91;100.00
39891;BME280;25564;53.312;9.790;2023-02-02T14:07:43;101338.16;;;7.91;100.00
39891;BME280;25564;53.312;9.790;2023-02-02T14:10:31;101327.59;;;7.92;100.00
39891;BME280;25564;53.312;9.790;2023-02-02T14:13:26;101340.84;;;8.04;100.00
39891;BME280;25564;53.312;9.790;2023-02-02T14:16:42;101335.59;;;8.09;100.00
39891;BME280;25564;53.312;9.790;2023-02-02T14:24:48;101340.81;;;7.87;100.00
39891;BME280;25564;53.312;9.790;2023-02-02T14:29:58;101345.19;;;7.82;100.00
39891;BME280;25564;53.312;9.790;2023-02-02T14:32:31;101350.44;;;7.78;100.00
39891;BME280;25564;53.312;9.790;2023-02-02T14:38:04;101343.41;;;7.74;100.00
39891;BME280;25564;53.312;9.790;2023-02-02T14:41:05;101353.06;;;7.69;100.00
39891;BME280;25564;53.312;9.790;2023-02-02T14:43:46;101361.84;;;7.65;100.00
39891;BME280;25564;53.312;9.790;2023-02-02T14:46:24;101368.88;;;7.60;100.00
39891;BME280;25564;53.312;9.790;2023-02-02T14:51:45;101374.06;;;7.47;100.00
39891;BME280;25564;53.312;9.790;2023-02-02T14:54:38;101377.56;;;7.40;100.00
39891;BME280;25564;53.312;9.790;2023-02-02T14:57:26;101388.97;;;7.35;100.00